createdAt,value
2022-08-04T00:03:22.573Z,24.40
2022-08-04T00:08:45.255Z,23.00
2022-08-04T00:14:03.628Z,23.70
2022-08-04T00:19:12.282Z,24.70
2022-08-04T00:24:18.098Z,25.50
2022-08-04T00:29:22.615Z,24.50
2022-08-04T00:34:28.861Z,22.90
2022-08-04T00:39:33.890Z,22.20
2022-08-04T00:44:57.356Z,26.40
2022-08-04T00:50:10.090Z,25.10
2022-08-04T00:55:32.590Z,23.60
2022-08-04T01:00:44.127Z,23.40
2022-08-04T01:06:04.108Z,23.60
2022-08-04T01:11:23.418Z,25.80
2022-08-04T01:16:31.374Z,25.10
2022-08-04T01:22:15.562Z,22.60
2022-08-04T01:27:31.619Z,23.00
2022-08-04T01:32:43.744Z,24.90
2022-08-04T01:37:56.310Z,25.00
2022-08-04T01:43:01.855Z,21.20
2022-08-04T01:48:08.225Z,24.20
2022-08-04T01:53:12.269Z,25.60
2022-08-04T01:58:20.831Z,23.20
2022-08-04T02:04:19.398Z,23.00
2022-08-04T02:09:02.078Z,23.50
2022-08-04T02:14:39.542Z,22.20
2022-08-04T02:20:06.203Z,23.40
2022-08-04T02:25:11.332Z,23.70
2022-08-04T02:30:15.355Z,21.30
2022-08-04T02:35:28.198Z,23.60
2022-08-04T02:40:32.756Z,23.60
2022-08-04T02:45:37.798Z,23.70
2022-08-04T02:50:43.981Z,21.10
2022-08-04T02:55:50.412Z,23.20
2022-08-04T03:00:54.731Z,22.40
2022-08-04T03:06:32.714Z,23.50
2022-08-04T03:11:56.767Z,23.70
2022-08-04T03:17:35.781Z,21.30
2022-08-04T03:23:38.716Z,21.80
2022-08-04T03:29:36.159Z,22.70
2022-08-04T03:35:02.816Z,22.70
2022-08-04T03:40:37.710Z,20.90
2022-08-04T03:46:16.325Z,21.20
2022-08-04T03:51:56.112Z,22.20
2022-08-04T03:57:30.493Z,19.10
2022-08-04T04:03:02.223Z,19.80
2022-08-04T04:08:38.905Z,19.40
2022-08-04T04:14:19.028Z,22.80
2022-08-04T04:19:43.250Z,20.90
2022-08-04T04:25:18.172Z,20.70
2022-08-04T04:35:37.702Z,20.20
2022-08-04T04:41:05.074Z,21.10
2022-08-04T04:46:16.157Z,19.90
2022-08-04T04:51:28.635Z,21.50
2022-08-04T04:56:41.006Z,19.80
2022-08-04T05:02:07.653Z,20.00
2022-08-04T05:07:44.729Z,19.80
2022-08-04T05:14:38.406Z,17.50
2022-08-04T05:18:42.123Z,19.70
2022-08-04T05:23:54.647Z,19.70
2022-08-04T05:29:02.669Z,20.60
2022-08-04T05:34:11.721Z,19.70
2022-08-04T05:39:19.809Z,20.70
2022-08-04T05:44:25.553Z,17.40
2022-08-04T05:49:29.967Z,20.50
2022-08-04T05:54:36.280Z,19.30
2022-08-04T06:04:50.102Z,20.30
2022-08-04T06:09:54.277Z,20.50
2022-08-04T06:14:59.996Z,21.60
2022-08-04T06:20:19.459Z,19.10
2022-08-04T06:25:32.382Z,21.40
2022-08-04T06:30:37.690Z,19.10
2022-08-04T06:35:42.673Z,19.70
2022-08-04T06:40:46.822Z,20.10
2022-08-04T06:45:51.160Z,18.70
2022-08-04T06:51:30.526Z,19.30
2022-08-04T06:56:21.084Z,20.00
2022-08-04T07:01:26.958Z,20.70
2022-08-04T07:06:30.773Z,18.20
2022-08-04T07:11:44.313Z,21.80
2022-08-04T07:16:50.348Z,16.80
2022-08-04T07:22:15.998Z,15.00
2022-08-04T07:27:18.624Z,14.60
2022-08-04T07:32:45.627Z,12.60
2022-08-04T07:37:49.305Z,13.10
2022-08-04T07:42:53.491Z,12.80
2022-08-04T07:48:05.011Z,12.30
2022-08-04T07:53:55.342Z,11.60
2022-08-04T07:58:36.087Z,11.10
2022-08-04T08:03:41.225Z,12.10
2022-08-04T08:08:44.971Z,10.90
2022-08-04T08:13:49.189Z,12.00
2022-08-04T08:18:53.050Z,11.30
2022-08-04T08:23:57.996Z,11.80
2022-08-04T08:29:03.923Z,11.10
2022-08-04T08:34:08.531Z,11.30
2022-08-04T08:39:22.843Z,10.60
2022-08-04T08:45:17.952Z,10.30
2022-08-04T08:50:46.875Z,10.30
2022-08-04T08:56:02.774Z,9.10
2022-08-04T09:06:46.321Z,8.40
2022-08-04T09:12:01.327Z,8.10
2022-08-04T09:17:12.589Z,8.40
2022-08-04T09:22:23.775Z,8.10
2022-08-04T09:27:35.373Z,7.80
2022-08-04T09:33:04.535Z,8.20
2022-08-04T09:38:16.347Z,7.90
2022-08-04T09:44:43.217Z,8.20
2022-08-04T09:49:02.278Z,8.20
2022-08-04T09:54:12.376Z,7.90
2022-08-04T09:59:44.494Z,8.30
2022-08-04T10:04:49.186Z,8.60
2022-08-04T10:10:04.687Z,8.80
2022-08-04T10:20:44.822Z,8.10
2022-08-04T10:26:07.458Z,8.60
2022-08-04T10:31:19.270Z,9.00
2022-08-04T10:36:28.068Z,9.80
2022-08-04T10:41:40.434Z,9.10
2022-08-04T10:46:49.682Z,9.00
2022-08-04T10:51:59.770Z,9.70
2022-08-04T10:57:13.066Z,8.60
2022-08-04T11:02:34.145Z,9.00
2022-08-04T11:07:41.662Z,9.50
2022-08-04T11:12:48.735Z,9.30
2022-08-04T11:17:56.823Z,9.10
2022-08-04T11:23:06.812Z,9.70
2022-08-04T11:28:19.321Z,8.50
2022-08-04T11:33:36.769Z,8.60
2022-08-04T11:38:50.906Z,9.70
2022-08-04T11:44:03.359Z,8.70
2022-08-04T11:49:16.725Z,9.10
2022-08-04T11:54:21.953Z,9.80
2022-08-04T11:59:27.875Z,9.30
2022-08-04T12:04:46.805Z,8.90
2022-08-04T12:10:01.708Z,9.10
2022-08-04T12:15:16.451Z,9.30
2022-08-04T12:20:31.922Z,9.40
2022-08-04T12:25:47.645Z,8.80
2022-08-04T12:31:03.308Z,9.20
2022-08-04T12:36:21.632Z,9.70
2022-08-04T12:41:35.938Z,9.10
2022-08-04T12:46:45.270Z,8.90
2022-08-04T12:52:07.507Z,9.30
2022-08-04T12:57:14.634Z,9.10
2022-08-04T13:02:30.522Z,8.80
2022-08-04T13:07:38.810Z,9.70
2022-08-04T13:12:54.972Z,9.10
2022-08-04T13:18:01.923Z,10.00
2022-08-04T13:23:09.063Z,9.70
2022-08-04T13:28:19.998Z,9.60
2022-08-04T13:33:28.126Z,9.80
2022-08-04T13:38:33.332Z,9.20
2022-08-04T13:44:15.796Z,10.20
2022-08-04T13:54:42.767Z,9.00
2022-08-04T13:59:51.806Z,9.10
2022-08-04T14:05:04.446Z,8.80
2022-08-04T14:10:13.167Z,9.80
2022-08-04T14:16:02.122Z,9.10
2022-08-04T14:21:07.295Z,8.70
2022-08-04T14:26:30.013Z,9.10
2022-08-04T14:31:37.803Z,8.70
2022-08-04T14:37:17.959Z,8.60
2022-08-04T14:42:42.112Z,9.80
2022-08-04T14:47:52.386Z,8.80
2022-08-04T14:53:03.637Z,9.30
2022-08-04T14:58:36.401Z,9.10
2022-08-04T15:04:07.602Z,8.50
2022-08-04T15:09:12.007Z,9.00
2022-08-04T15:14:18.586Z,8.70
2022-08-04T15:19:40.298Z,9.20
2022-08-04T15:24:43.985Z,9.00
2022-08-04T15:30:00.199Z,8.90
2022-08-04T15:35:09.127Z,9.50
2022-08-04T15:40:18.533Z,8.80
2022-08-04T15:46:33.202Z,8.70
2022-08-04T15:51:30.451Z,8.20
2022-08-04T15:56:48.542Z,9.90
2022-08-04T16:02:39.872Z,8.90
2022-08-04T16:07:58.049Z,8.90
2022-08-04T16:13:07.364Z,9.30
2022-08-04T16:18:26.596Z,9.30
2022-08-04T16:24:06.397Z,8.90
2022-08-04T16:29:38.187Z,9.20
2022-08-04T16:34:49.893Z,8.20
2022-08-04T16:40:36.269Z,8.30
2022-08-04T16:45:46.048Z,8.20
2022-08-04T16:50:52.145Z,8.20
2022-08-04T16:55:56.678Z,8.90
2022-08-04T17:01:08.357Z,9.60
2022-08-04T17:06:16.641Z,9.00
2022-08-04T17:11:32.120Z,7.90
2022-08-04T17:16:40.597Z,8.40
2022-08-04T17:21:45.200Z,8.20
2022-08-04T17:26:53.850Z,8.50
2022-08-04T17:31:59.759Z,8.30
2022-08-04T17:37:24.326Z,7.90
2022-08-04T17:42:33.922Z,8.30
2022-08-04T17:47:52.162Z,8.60
2022-08-04T17:53:12.213Z,8.30
2022-08-04T17:58:22.544Z,9.40
2022-08-04T18:03:29.113Z,8.50
2022-08-04T18:08:39.428Z,9.40
2022-08-04T18:13:54.550Z,8.80
2022-08-04T18:19:11.051Z,9.10
2022-08-04T18:24:14.902Z,8.80
2022-08-04T18:29:31.595Z,8.90
2022-08-04T18:34:40.831Z,9.30
2022-08-04T18:40:25.752Z,9.40
2022-08-04T18:45:22.657Z,9.40
2022-08-04T18:50:59.325Z,10.70
2022-08-04T18:55:56.997Z,10.00
2022-08-04T19:01:02.107Z,9.20
2022-08-04T19:06:07.513Z,8.60
2022-08-04T19:16:35.278Z,9.30
2022-08-04T19:22:01.188Z,10.50
2022-08-04T19:27:08.238Z,9.80
2022-08-04T19:32:16.014Z,9.70
2022-08-04T19:37:57.921Z,9.50
2022-08-04T19:42:45.455Z,10.00
2022-08-04T19:48:16.953Z,10.20
2022-08-04T19:53:36.067Z,10.50
2022-08-04T19:58:41.622Z,10.50
2022-08-04T20:04:10.357Z,10.60
2022-08-04T20:09:26.107Z,9.50
2022-08-04T20:14:33.438Z,11.20
2022-08-04T20:24:47.982Z,10.80
2022-08-04T20:29:58.405Z,11.30
2022-08-04T20:40:11.647Z,11.30
2022-08-04T20:45:55.962Z,10.60
2022-08-04T20:50:49.829Z,11.30
2022-08-04T20:55:56.066Z,11.60
2022-08-04T21:01:00.332Z,11.40
2022-08-04T21:06:06.456Z,11.90
2022-08-04T21:11:10.298Z,11.70
2022-08-04T21:16:55.002Z,11.30
2022-08-04T21:21:42.242Z,11.60
2022-08-04T21:26:55.784Z,11.70
2022-08-04T21:32:01.464Z,12.30
2022-08-04T21:37:14.028Z,11.00
2022-08-04T21:47:46.419Z,12.60
2022-08-04T21:52:53.422Z,12.80
2022-08-04T21:57:58.724Z,12.30
2022-08-04T22:03:03.059Z,13.00
2022-08-04T22:08:07.641Z,12.50
2022-08-04T22:13:24.305Z,12.60
2022-08-04T22:18:47.772Z,12.10
2022-08-04T22:23:52.426Z,12.90
2022-08-04T22:28:59.080Z,12.20
2022-08-04T22:34:03.722Z,13.60
2022-08-04T22:39:12.235Z,12.70
2022-08-04T22:44:17.420Z,12.80
2022-08-04T22:49:31.188Z,13.50
2022-08-04T22:54:37.607Z,14.00
2022-08-04T22:59:43.362Z,14.60
2022-08-04T23:04:52.369Z,13.20
2022-08-04T23:09:58.463Z,12.80
2022-08-04T23:15:10.977Z,12.20
2022-08-04T23:20:23.153Z,12.30
2022-08-04T23:26:08.603Z,12.30
2022-08-04T23:31:10.161Z,15.50
2022-08-04T23:36:14.331Z,12.60
2022-08-04T23:41:18.646Z,14.50
2022-08-04T23:46:24.104Z,12.70
2022-08-04T23:51:30.995Z,12.00
2022-08-04T23:56:37.826Z,13.60
